Time;durP1;ratioP1;P1;durP2;ratioP2;P2;SDS_P1;SDS_P2;PMS_P1;PMS_P2;Temp;Humidity;BMP_temperature;BMP_pressure;BME280_temperature;BME280_humidity;BME280_pressure;Samples;Min_cycle;Max_cycle;Signal;HPM_P1;HPM_P2
2022/12/07 07:14:26;;;;;;;8.10;7.70;;;;;;;;;;6229829;21;2368659;-90
2022/12/07 07:16:52;;;;;;;2.65;2.47;;;;;;;;;;6318311;22;20375;-91
2022/12/07 07:19:19;;;;;;;7.97;7.65;;;;;;;;;;6316651;22;20027;-91
2022/12/07 07:21:46;;;;;;;5.32;5.13;;;;;;;;;;6316695;22;20069;-91
2022/12/07 07:24:12;;;;;;;6.88;6.47;;;;;;;;;;6316190;22;20030;-91
2022/12/07 07:26:39;;;;;;;6.72;6.43;;;;;;;;;;6316462;22;20080;-92
2022/12/07 07:29:05;;;;;;;8.02;7.72;;;;;;;;;;6317912;22;20023;-92
2022/12/07 07:31:35;;;;;;;8.68;8.25;;;;;;;;;;6317811;22;20034;-88
2022/12/07 07:34:01;;;;;;;10.23;9.73;;;;;;;;;;6317391;22;20065;-89
2022/12/07 07:36:28;;;;;;;5.55;5.35;;;;;;;;;;6318205;22;20015;-89
2022/12/07 07:38:54;;;;;;;7.97;7.63;;;;;;;;;;6318852;22;20026;-87
2022/12/07 07:41:21;;;;;;;6.57;6.20;;;;;;;;;;6317599;22;20023;-88
2022/12/07 07:43:47;;;;;;;7.68;7.28;;;;;;;;;;6316389;22;20023;-86
2022/12/07 07:46:14;;;;;;;5.18;4.97;;;;;;;;;;6316341;22;20026;-91
2022/12/07 07:48:42;;;;;;;5.28;5.00;;;;;;;;;;6317139;22;20022;-88
2022/12/07 07:51:09;;;;;;;7.25;6.75;;;;;;;;;;6316599;22;20026;-88
2022/12/07 07:53:35;;;;;;;6.93;6.55;;;;;;;;;;6316744;22;20080;-88
2022/12/07 07:56:02;;;;;;;6.43;6.13;;;;;;;;;;6316639;22;20022;-89
2022/12/07 07:58:28;;;;;;;7.55;7.13;;;;;;;;;;6316376;22;20019;-90
2022/12/07 08:00:55;;;;;;;6.43;6.22;;;;;;;;;;6316392;22;20452;-89
2022/12/07 08:03:21;;;;;;;6.53;6.13;;;;;;;;;;6316010;22;20015;-88
2022/12/07 08:05:49;;;;;;;7.80;7.40;;;;;;;;;;6316842;22;20023;-88
2022/12/07 08:08:16;;;;;;;7.10;6.70;;;;;;;;;;6316367;22;20019;-88
2022/12/07 08:10:42;;;;;;;7.32;6.95;;;;;;;;;;6316066;22;20023;-89
2022/12/07 08:13:13;;;;;;;8.93;8.35;;;;;;;;;;6315327;22;20140;-91
2022/12/07 08:15:40;;;;;;;7.13;6.82;;;;;;;;;;6309621;22;20029;-90
2022/12/07 08:18:06;;;;;;;10.70;10.20;;;;;;;;;;6309560;22;20041;-89
2022/12/07 08:20:33;;;;;;;10.68;10.23;;;;;;;;;;6309552;22;20077;-88
2022/12/07 08:23:01;;;;;;;6.65;6.35;;;;;;;;;;6308798;22;20015;-89
2022/12/07 08:25:28;;;;;;;6.97;6.50;;;;;;;;;;6309043;22;20019;-90
2022/12/07 08:27:55;;;;;;;6.63;6.32;;;;;;;;;;6309448;22;20020;-88
2022/12/07 08:30:22;;;;;;;6.88;6.57;;;;;;;;;;6309812;22;20030;-89
2022/12/07 08:32:49;;;;;;;7.75;7.35;;;;;;;;;;6308741;22;20015;-89
2022/12/07 08:35:16;;;;;;;9.38;8.98;;;;;;;;;;6307580;22;20077;-88
2022/12/07 08:37:42;;;;;;;7.80;7.50;;;;;;;;;;6308050;22;20533;-89
2022/12/07 08:40:11;;;;;;;8.63;8.15;;;;;;;;;;6308381;22;20030;-89
2022/12/07 08:42:40;;;;;;;9.55;9.05;;;;;;;;;;6308489;22;20826;-89
2022/12/07 08:45:07;;;;;;;9.15;8.75;;;;;;;;;;6308727;22;20015;-91
2022/12/07 08:47:34;;;;;;;4.28;3.28;;;;;;;;;;6308627;22;20341;-90
2022/12/07 08:50:03;;;;;;;6.55;6.25;;;;;;;;;;6308869;22;20073;-90
2022/12/07 08:52:30;;;;;;;7.15;6.70;;;;;;;;;;6308645;22;20069;-88
2022/12/07 08:54:57;;;;;;;9.27;8.32;;;;;;;;;;6308212;22;20054;-89
2022/12/07 08:57:25;;;;;;;7.55;7.15;;;;;;;;;;6308420;22;20023;-89
2022/12/07 08:59:51;;;;;;;6.95;6.60;;;;;;;;;;6308064;22;20065;-90
2022/12/07 09:02:18;;;;;;;7.68;7.22;;;;;;;;;;6308208;22;20030;-89
2022/12/07 09:04:44;;;;;;;8.63;8.18;;;;;;;;;;6308154;22;20034;-88
2022/12/07 09:07:11;;;;;;;9.30;8.85;;;;;;;;;;6308355;22;20019;-89
2022/12/07 09:09:37;;;;;;;11.18;10.57;;;;;;;;;;6308601;22;20049;-94
2022/12/07 09:12:04;;;;;;;7.57;7.18;;;;;;;;;;6308501;22;20057;-89
2022/12/07 09:14:32;;;;;;;7.05;6.70;;;;;;;;;;6308616;22;20023;-87
2022/12/07 09:17:06;;;;;;;8.70;8.30;;;;;;;;;;6307867;22;20023;-88
2022/12/07 09:19:32;;;;;;;7.43;7.13;;;;;;;;;;6308003;22;20068;-89
2022/12/07 09:21:59;;;;;;;5.78;5.55;;;;;;;;;;6308411;22;20023;-88
2022/12/07 09:24:25;;;;;;;7.72;7.38;;;;;;;;;;6307866;22;20072;-88
2022/12/07 09:26:52;;;;;;;6.45;6.15;;;;;;;;;;6307905;22;20031;-89
2022/12/07 09:29:18;;;;;;;8.23;7.63;;;;;;;;;;6308060;22;20030;-88
2022/12/07 09:31:46;;;;;;;7.35;6.97;;;;;;;;;;6308257;22;20024;-88
2022/12/07 09:34:12;;;;;;;7.65;7.28;;;;;;;;;;6306810;22;20027;-88
2022/12/07 09:36:39;;;;;;;6.97;6.57;;;;;;;;;;6307630;22;20554;-89
2022/12/07 09:39:05;;;;;;;7.40;7.07;;;;;;;;;;6307994;22;20069;-88
2022/12/07 09:41:33;;;;;;;8.20;7.80;;;;;;;;;;6307982;22;20092;-87
2022/12/07 09:44:03;;;;;;;10.27;9.77;;;;;;;;;;6307429;22;20022;-88
2022/12/07 09:46:31;;;;;;;7.28;6.97;;;;;;;;;;6308082;22;20019;-90
2022/12/07 09:48:59;;;;;;;7.30;7.00;;;;;;;;;;6307345;22;20026;-89
2022/12/07 09:51:26;;;;;;;6.80;6.50;;;;;;;;;;6307485;22;20053;-88
2022/12/07 09:53:53;;;;;;;7.03;6.63;;;;;;;;;;6307235;22;20023;-87
2022/12/07 09:56:20;;;;;;;7.47;7.18;;;;;;;;;;6307932;22;20081;-90
2022/12/07 09:58:47;;;;;;;7.00;6.70;;;;;;;;;;6308042;22;20020;-87
2022/12/07 10:01:15;;;;;;;3.22;3.10;;;;;;;;;;6307321;22;20595;-87
2022/12/07 10:03:45;;;;;;;5.75;5.45;;;;;;;;;;6306497;22;20069;-87
2022/12/07 10:06:14;;;;;;;5.30;5.00;;;;;;;;;;6309107;22;20019;-87
2022/12/07 10:08:43;;;;;;;6.50;6.00;;;;;;;;;;6307242;22;20103;-88
2022/12/07 10:11:10;;;;;;;6.32;6.03;;;;;;;;;;6308095;22;20024;-88
2022/12/07 10:13:38;;;;;;;6.45;6.15;;;;;;;;;;6307180;22;20019;-88
2022/12/07 10:16:05;;;;;;;7.90;7.50;;;;;;;;;;6307327;22;20027;-87
2022/12/07 10:18:35;;;;;;;9.00;8.50;;;;;;;;;;6307629;22;20093;-87
2022/12/07 10:21:04;;;;;;;8.30;7.93;;;;;;;;;;6308219;22;20023;-88
2022/12/07 10:23:32;;;;;;;7.38;7.05;;;;;;;;;;6307569;22;20019;-88
2022/12/07 10:25:59;;;;;;;6.93;6.63;;;;;;;;;;6307300;22;20019;-87
2022/12/07 10:28:34;;;;;;;7.78;7.43;;;;;;;;;;6307050;22;20556;-87
2022/12/07 10:31:01;;;;;;;7.93;7.38;;;;;;;;;;6307433;22;20027;-89
2022/12/07 10:33:32;;;;;;;8.13;7.78;;;;;;;;;;6307025;22;20030;-88
2022/12/07 10:35:59;;;;;;;8.20;7.80;;;;;;;;;;6306673;22;20023;-89
2022/12/07 10:38:26;;;;;;;7.30;6.80;;;;;;;;;;6307307;22;20019;-88
2022/12/07 10:41:03;;;;;;;3.55;3.35;;;;;;;;;;6307671;22;20402;-87
2022/12/07 10:43:30;;;;;;;8.07;7.72;;;;;;;;;;6306688;22;20499;-88
2022/12/07 10:46:17;;;;;;;8.02;7.68;;;;;;;;;;6307017;22;20026;-87
2022/12/07 10:48:46;;;;;;;6.78;6.47;;;;;;;;;;6267671;22;20019;-89
2022/12/07 10:51:15;;;;;;;4.00;3.70;;;;;;;;;;6307575;22;20344;-88
2022/12/07 10:53:49;;;;;;;9.05;8.65;;;;;;;;;;6307095;22;20026;-88
2022/12/07 10:56:30;;;;;;;8.63;8.23;;;;;;;;;;6307076;22;20104;-88
2022/12/07 10:59:04;;;;;;;2.80;2.60;;;;;;;;;;6303116;22;20337;-89
2022/12/07 11:01:33;;;;;;;8.10;7.75;;;;;;;;;;6306911;22;20030;-88
2022/12/07 11:04:19;;;;;;;10.65;10.15;;;;;;;;;;6306260;22;20098;-88
2022/12/07 11:06:48;;;;;;;7.63;7.25;;;;;;;;;;6306596;22;20027;-88
2022/12/07 11:09:35;;;;;;;7.45;7.05;;;;;;;;;;6307285;22;20020;-88
2022/12/07 11:12:06;;;;;;;10.32;9.73;;;;;;;;;;6307477;22;20061;-88
2022/12/07 11:14:37;;;;;;;9.77;9.27;;;;;;;;;;6308252;22;20051;-87
2022/12/07 11:17:08;;;;;;;5.63;5.43;;;;;;;;;;6310671;22;20074;-87
2022/12/07 11:19:51;;;;;;;8.25;7.75;;;;;;;;;;6310996;22;20050;-88
2022/12/07 11:22:21;;;;;;;9.75;9.15;;;;;;;;;;6306759;22;20094;-87
2022/12/07 11:24:50;;;;;;;8.75;8.35;;;;;;;;;;6307234;22;20015;-89
2022/12/07 11:27:23;;;;;;;13.60;7.43;;;;;;;;;;6307385;22;20023;-88
2022/12/07 11:30:10;;;;;;;7.55;7.25;;;;;;;;;;6307542;22;20030;-88
2022/12/07 11:32:45;;;;;;;7.75;7.35;;;;;;;;;;6299122;22;20024;-88
2022/12/07 11:35:14;;;;;;;9.23;8.75;;;;;;;;;;6306799;22;20023;-88
2022/12/07 11:37:42;;;;;;;7.38;7.07;;;;;;;;;;6307384;22;20024;-88
2022/12/07 11:40:15;;;;;;;8.32;7.97;;;;;;;;;;6307110;22;20098;-88
2022/12/07 11:42:45;;;;;;;7.72;6.85;;;;;;;;;;6307089;22;20086;-88
2022/12/07 11:45:16;;;;;;;6.75;6.45;;;;;;;;;;6307089;22;20020;-87
2022/12/07 11:47:46;;;;;;;9.25;8.77;;;;;;;;;;6306233;22;20049;-87
2022/12/07 11:50:19;;;;;;;8.32;7.82;;;;;;;;;;6308829;22;20019;-88
2022/12/07 11:52:49;;;;;;;6.65;6.25;;;;;;;;;;6309234;22;20097;-88
2022/12/07 11:55:19;;;;;;;2.15;2.00;;;;;;;;;;6308951;22;20344;-88
2022/12/07 11:57:50;;;;;;;7.53;7.18;;;;;;;;;;6308612;22;20023;-88
2022/12/07 12:00:17;;;;;;;8.25;7.85;;;;;;;;;;6308381;22;20076;-88
2022/12/07 12:02:49;;;;;;;8.85;8.45;;;;;;;;;;6309454;22;20091;-88
2022/12/07 12:05:17;;;;;;;10.57;10.15;;;;;;;;;;6307271;22;20027;-88
2022/12/07 12:07:45;;;;;;;8.30;7.85;;;;;;;;;;6308468;22;20019;-89
2022/12/07 12:10:17;;;;;;;4.00;3.80;;;;;;;;;;6309218;22;20387;-89
2022/12/07 12:12:53;;;;;;;9.90;9.40;;;;;;;;;;6309535;22;20019;-88
2022/12/07 12:15:26;;;;;;;8.68;8.27;;;;;;;;;;6308848;22;20084;-88
2022/12/07 12:18:02;;;;;;;8.15;7.75;;;;;;;;;;6308931;22;20027;-88
2022/12/07 12:20:30;;;;;;;7.13;6.72;;;;;;;;;;6308695;22;20023;-88
2022/12/07 12:22:59;;;;;;;7.97;7.47;;;;;;;;;;6308596;22;20097;-88
2022/12/07 12:25:26;;;;;;;8.05;7.70;;;;;;;;;;6308151;22;20023;-88
2022/12/07 12:27:55;;;;;;;7.82;7.35;;;;;;;;;;6308669;22;20030;-88
2022/12/07 12:30:26;;;;;;;11.43;10.52;;;;;;;;;;6308803;22;20023;-88
2022/12/07 12:32:53;;;;;;;10.68;10.18;;;;;;;;;;6308454;22;20019;-88
2022/12/07 12:35:30;;;;;;;8.32;7.60;;;;;;;;;;6308417;22;20092;-88
2022/12/07 12:38:16;;;;;;;8.35;7.97;;;;;;;;;;6307958;22;20052;-88
2022/12/07 12:40:44;;;;;;;8.32;8.02;;;;;;;;;;6308407;22;20023;-87
2022/12/07 12:43:30;;;;;;;4.18;3.88;;;;;;;;;;6307908;22;20388;-87
2022/12/07 12:46:11;;;;;;;9.13;8.73;;;;;;;;;;6309743;22;20019;-87
2022/12/07 12:48:38;;;;;;;9.52;9.02;;;;;;;;;;6309546;22;20019;-87
2022/12/07 12:51:23;;;;;;;8.68;8.20;;;;;;;;;;6310436;22;20072;-87
2022/12/07 12:53:51;;;;;;;9.40;9.00;;;;;;;;;;6309156;22;20509;-87
2022/12/07 12:56:35;;;;;;;9.50;8.80;;;;;;;;;;6308699;22;20023;-87
2022/12/07 12:59:24;;;;;;;12.30;11.63;;;;;;;;;;6309715;22;20023;-87
2022/12/07 13:01:52;;;;;;;7.97;7.68;;;;;;;;;;6307989;22;20550;-87
2022/12/07 13:04:22;;;;;;;9.90;9.18;;;;;;;;;;6307964;22;20019;-87
2022/12/07 13:06:49;;;;;;;9.57;9.10;;;;;;;;;;6308762;22;20045;-87
2022/12/07 13:09:21;;;;;;;6.78;6.47;;;;;;;;;;6312544;22;20015;-88
2022/12/07 13:11:48;;;;;;;8.27;7.88;;;;;;;;;;6309697;22;20073;-88
2022/12/07 13:14:33;;;;;;;6.65;6.35;;;;;;;;;;6310627;22;20023;-88
2022/12/07 13:16:59;;;;;;;8.60;8.20;;;;;;;;;;6310089;22;20069;-88
2022/12/07 13:20:01;;;;;;;8.98;8.48;;;;;;;;;;6307958;22;20080;-87
2022/12/07 13:22:46;;;;;;;8.25;7.85;;;;;;;;;;6308200;22;20076;-88
2022/12/07 13:25:19;;;;;;;8.45;8.10;;;;;;;;;;6308317;22;20015;-88
2022/12/07 13:27:49;;;;;;;2.67;2.55;;;;;;;;;;6307685;22;20430;-88
2022/12/07 13:30:17;;;;;;;8.93;8.52;;;;;;;;;;6308203;22;20069;-87
2022/12/07 13:32:44;;;;;;;7.53;7.10;;;;;;;;;;6307631;22;20088;-87
2022/12/07 13:35:30;;;;;;;8.73;8.32;;;;;;;;;;6308350;22;20062;-88
2022/12/07 13:37:57;;;;;;;8.02;7.72;;;;;;;;;;6307837;22;20059;-87
2022/12/07 13:40:25;;;;;;;10.65;4.63;;;;;;;;;;6308323;22;20369;-87
2022/12/07 13:42:58;;;;;;;6.75;6.38;;;;;;;;;;6308655;22;20016;-88
2022/12/07 13:45:47;;;;;;;6.95;6.63;;;;;;;;;;6307557;22;20015;-87
2022/12/07 14:00:51;;;;;;;6.50;6.10;;;;;;;;;;5113711;27;20392;-91
2022/12/07 14:03:28;;;;;;;6.95;4.10;;;;;;;;;;5119835;28;20492;-91
2022/12/07 14:06:05;;;;;;;2.50;2.40;;;;;;;;;;5114318;28;20079;-89
2022/12/07 14:08:32;;;;;;;2.78;2.58;;;;;;;;;;5109611;28;20165;-89
2022/12/07 14:10:59;;;;;;;3.45;3.17;;;;;;;;;;5108533;28;20105;-90
2022/12/07 14:13:29;;;;;;;4.65;4.32;;;;;;;;;;5109121;28;20047;-89
2022/12/07 14:15:58;;;;;;;2.80;2.60;;;;;;;;;;5108240;28;20043;-88
2022/12/07 14:18:28;;;;;;;5.85;5.45;;;;;;;;;;5107895;28;20054;-88
2022/12/07 14:21:03;;;;;;;5.20;4.90;;;;;;;;;;5088068;28;20493;-88
2022/12/07 14:23:30;;;;;;;3.13;2.88;;;;;;;;;;5109108;28;20044;-88
2022/12/07 14:26:06;;;;;;;4.25;4.05;;;;;;;;;;5108547;28;20052;-88
2022/12/07 14:28:33;;;;;;;4.72;4.40;;;;;;;;;;5108650;28;20101;-89
2022/12/07 14:31:02;;;;;;;4.20;3.90;;;;;;;;;;5088541;28;20106;-88
2022/12/07 14:33:28;;;;;;;2.90;2.72;;;;;;;;;;5107978;28;20052;-88
2022/12/07 14:35:57;;;;;;;3.38;3.10;;;;;;;;;;5107479;28;20039;-88
2022/12/07 14:38:24;;;;;;;3.50;3.30;;;;;;;;;;5105927;28;20052;-88
2022/12/07 14:40:51;;;;;;;3.33;2.90;;;;;;;;;;5107487;28;20036;-88
2022/12/07 14:43:18;;;;;;;4.03;3.80;;;;;;;;;;5107227;28;20508;-89
2022/12/07 14:45:45;;;;;;;4.38;4.07;;;;;;;;;;5091872;28;20053;-95
2022/12/07 14:48:14;;;;;;;4.10;3.88;;;;;;;;;;5092889;28;20105;-96
2022/12/07 14:50:42;;;;;;;2.15;2.05;;;;;;;;;;5103883;28;20048;-96
2022/12/07 14:53:13;;;;;;;4.70;4.40;;;;;;;;;;5115357;28;20470;-96
2022/12/07 14:55:39;;;;;;;;;;;;;;;;;;5111226;28;20151;-90
2022/12/07 14:58:06;;;;;;;4.15;3.92;;;;;;;;;;5110042;28;19973;-92
2022/12/07 15:00:32;;;;;;;5.53;5.13;;;;;;;;;;5103398;28;20056;-91
2022/12/07 15:02:59;;;;;;;3.75;3.55;;;;;;;;;;5096355;28;20071;-90
2022/12/07 15:05:27;;;;;;;3.53;3.33;;;;;;;;;;5096077;28;20051;-92
2022/12/07 15:07:53;;;;;;;3.38;3.17;;;;;;;;;;5096671;28;20075;-95
2022/12/07 15:10:21;;;;;;;4.25;4.05;;;;;;;;;;5096744;28;20499;-96
2022/12/07 15:12:48;;;;;;;3.22;3.03;;;;;;;;;;5096813;28;20052;-96
2022/12/07 15:15:15;;;;;;;4.53;4.32;;;;;;;;;;5096307;28;20054;-96
2022/12/07 15:17:41;;;;;;;4.97;4.68;;;;;;;;;;5096369;28;20056;-96
2022/12/07 15:20:12;;;;;;;3.72;3.55;;;;;;;;;;5095900;28;20048;-95
2022/12/07 15:22:40;;;;;;;5.18;3.63;;;;;;;;;;5096253;28;20044;-96
2022/12/07 15:25:06;;;;;;;4.60;4.35;;;;;;;;;;5096131;28;20376;-95
2022/12/07 15:27:34;;;;;;;5.65;5.38;;;;;;;;;;5095957;28;20048;-96
2022/12/07 15:30:01;;;;;;;5.50;5.20;;;;;;;;;;5096122;28;20048;-96
2022/12/07 15:32:27;;;;;;;4.72;4.40;;;;;;;;;;5096025;28;20052;-96
2022/12/07 15:34:54;;;;;;;4.88;4.60;;;;;;;;;;5096282;28;20044;-96
2022/12/07 15:37:20;;;;;;;5.00;4.78;;;;;;;;;;5095919;28;20101;-96
2022/12/07 15:39:48;;;;;;;6.95;6.55;;;;;;;;;;5095844;28;20477;-96
2022/12/07 15:42:14;;;;;;;5.03;3.88;;;;;;;;;;5095412;28;20051;-95
2022/12/07 15:47:24;;;;;;;4.13;3.92;;;;;;;;;;5095678;28;20098;-95
2022/12/07 15:49:51;;;;;;;5.35;5.05;;;;;;;;;;5095395;28;20044;-95
2022/12/07 15:52:18;;;;;;;5.53;5.22;;;;;;;;;;5096038;28;20099;-95
2022/12/07 15:54:47;;;;;;;3.63;3.33;;;;;;;;;;5096579;28;20055;-95
2022/12/07 15:57:15;;;;;;;4.25;3.95;;;;;;;;;;5095857;28;20052;-96
2022/12/07 15:59:41;;;;;;;4.53;4.15;;;;;;;;;;5095853;28;20105;-96
2022/12/07 16:02:09;;;;;;;6.10;5.80;;;;;;;;;;5108461;28;20052;-96
2022/12/07 16:04:36;;;;;;;5.38;4.95;;;;;;;;;;5103565;28;20054;-96
2022/12/07 16:07:02;;;;;;;3.88;3.67;;;;;;;;;;5103853;28;20043;-96
2022/12/07 16:09:29;;;;;;;3.63;3.40;;;;;;;;;;5095230;28;20438;-96
2022/12/07 16:11:56;;;;;;;4.03;3.83;;;;;;;;;;5094230;28;20562;-96
2022/12/07 16:14:23;;;;;;;4.57;3.85;;;;;;;;;;5095007;28;20131;-95
2022/12/07 16:16:50;;;;;;;4.65;4.30;;;;;;;;;;5094716;28;20105;-95
2022/12/07 16:19:17;;;;;;;3.35;3.05;;;;;;;;;;5094691;28;20402;-96
2022/12/07 16:21:43;;;;;;;5.40;5.07;;;;;;;;;;5094432;28;20113;-95
2022/12/07 16:24:12;;;;;;;9.48;8.98;;;;;;;;;;5094904;28;20052;-95
2022/12/07 16:26:38;;;;;;;4.75;4.38;;;;;;;;;;5094768;28;20044;-96
2022/12/07 16:29:05;;;;;;;4.45;3.67;;;;;;;;;;5094925;28;20051;-95
2022/12/07 16:31:33;;;;;;;6.10;5.80;;;;;;;;;;5094780;28;20501;-96
2022/12/07 16:34:00;;;;;;;4.10;3.90;;;;;;;;;;5094506;28;20048;-96
2022/12/07 16:36:27;;;;;;;4.60;4.30;;;;;;;;;;5093205;28;20048;-96
2022/12/07 16:38:53;;;;;;;5.35;5.05;;;;;;;;;;5094361;28;20048;-96
2022/12/07 16:41:20;;;;;;;4.80;4.55;;;;;;;;;;5094661;28;20047;-96
2022/12/07 16:43:46;;;;;;;4.20;3.85;;;;;;;;;;5094281;28;20052;-96
2022/12/07 16:46:14;;;;;;;3.70;3.40;;;;;;;;;;5094528;28;20097;-96
2022/12/07 16:48:42;;;;;;;4.10;3.80;;;;;;;;;;5096373;28;20051;-96
2022/12/07 16:51:11;;;;;;;4.55;4.15;;;;;;;;;;5095095;28;20082;-96
2022/12/07 16:53:38;;;;;;;4.40;4.10;;;;;;;;;;5094524;28;20454;-96
2022/12/07 16:56:05;;;;;;;4.95;4.68;;;;;;;;;;5094217;28;20112;-96
2022/12/07 16:58:32;;;;;;;5.68;5.28;;;;;;;;;;5093746;28;20105;-96
2022/12/07 17:00:59;;;;;;;5.07;4.78;;;;;;;;;;5094346;28;20063;-96
2022/12/07 17:03:26;;;;;;;4.18;3.90;;;;;;;;;;5093946;28;20089;-96
2022/12/07 17:05:53;;;;;;;4.07;3.78;;;;;;;;;;5094419;28;20055;-96
2022/12/07 17:08:20;;;;;;;3.45;3.25;;;;;;;;;;5094502;28;20117;-96
2022/12/07 17:10:47;;;;;;;5.07;4.75;;;;;;;;;;5096424;28;20040;-96
2022/12/07 17:15:57;;;;;;;3.70;3.53;;;;;;;;;;5078956;28;20094;-96
2022/12/07 17:18:24;;;;;;;5.00;4.68;;;;;;;;;;5075859;28;20125;-96
2022/12/07 17:20:51;;;;;;;8.55;5.13;;;;;;;;;;5075141;28;20048;-96
2022/12/07 17:23:19;;;;;;;6.40;5.85;;;;;;;;;;5082738;28;20040;-96
2022/12/07 17:25:45;;;;;;;3.50;3.30;;;;;;;;;;5094997;28;20489;-96
2022/12/07 17:28:12;;;;;;;5.72;5.32;;;;;;;;;;5095139;28;20055;-95
2022/12/07 17:30:38;;;;;;;4.32;4.13;;;;;;;;;;5093548;28;20040;-94
2022/12/07 17:33:05;;;;;;;4.32;4.13;;;;;;;;;;5093778;28;20047;-94
2022/12/07 17:35:31;;;;;;;4.30;4.10;;;;;;;;;;5094389;28;20044;-96
2022/12/07 17:37:58;;;;;;;4.15;3.83;;;;;;;;;;5095697;28;20101;-96
2022/12/07 17:40:26;;;;;;;5.22;4.72;;;;;;;;;;5093942;28;20052;-96
2022/12/07 17:42:53;;;;;;;5.47;5.07;;;;;;;;;;5093986;28;20052;-96
2022/12/07 17:45:19;;;;;;;4.45;4.15;;;;;;;;;;5094311;28;20044;-95
2022/12/07 17:47:46;;;;;;;3.13;2.92;;;;;;;;;;5094517;28;20492;-96
2022/12/07 17:50:12;;;;;;;3.65;3.45;;;;;;;;;;5094217;28;20078;-96
2022/12/07 17:55:23;;;;;;;5.15;4.72;;;;;;;;;;5095110;28;20070;-96
2022/12/07 17:57:52;;;;;;;4.63;3.70;;;;;;;;;;5094492;28;20058;-96
2022/12/07 18:00:18;;;;;;;4.03;3.75;;;;;;;;;;5094385;28;20052;-96
2022/12/07 18:02:45;;;;;;;4.85;4.55;;;;;;;;;;5105024;28;20052;-96
2022/12/07 18:05:11;;;;;;;3.75;3.47;;;;;;;;;;5100569;28;20101;-96
2022/12/07 18:07:38;;;;;;;4.18;3.88;;;;;;;;;;5099351;28;20097;-96
2022/12/07 18:10:08;;;;;;;4.30;4.00;;;;;;;;;;5093751;28;20044;-96
2022/12/07 18:12:34;;;;;;;5.90;5.50;;;;;;;;;;5093830;28;20052;-96
2022/12/07 18:15:02;;;;;;;8.13;7.65;;;;;;;;;;5093548;28;20095;-96
2022/12/07 18:17:29;;;;;;;4.88;4.47;;;;;;;;;;5093000;28;20504;-96
2022/12/07 18:19:55;;;;;;;4.45;4.22;;;;;;;;;;5093109;28;20044;-96
2022/12/07 18:22:22;;;;;;;4.32;4.03;;;;;;;;;;5093460;28;20066;-96
2022/12/07 18:24:48;;;;;;;3.88;3.70;;;;;;;;;;5093311;28;20105;-96
2022/12/07 18:27:15;;;;;;;5.28;4.95;;;;;;;;;;5072771;28;20060;-96
2022/12/07 18:29:41;;;;;;;5.50;4.60;;;;;;;;;;5078777;28;20054;-95
2022/12/07 18:32:09;;;;;;;3.25;3.05;;;;;;;;;;5093049;28;20077;-96
2022/12/07 18:34:36;;;;;;;4.72;4.38;;;;;;;;;;5093444;28;20051;-96
2022/12/07 18:37:02;;;;;;;3.72;3.38;;;;;;;;;;5096720;28;20059;-95
2022/12/07 18:39:29;;;;;;;6.80;5.32;;;;;;;;;;5097119;28;20051;-96
2022/12/07 18:41:55;;;;;;;3.90;3.60;;;;;;;;;;5097109;28;20100;-96
2022/12/07 18:44:21;;;;;;;4.25;3.95;;;;;;;;;;5097327;28;20052;-96
2022/12/07 18:46:48;;;;;;;5.65;5.20;;;;;;;;;;5096814;28;20040;-96
2022/12/07 18:49:16;;;;;;;4.07;3.88;;;;;;;;;;5097336;28;20044;-96
2022/12/07 18:51:43;;;;;;;4.47;4.15;;;;;;;;;;5099107;28;20055;-96
2022/12/07 18:54:10;;;;;;;3.78;3.55;;;;;;;;;;5096976;28;20051;-96
2022/12/07 18:56:37;;;;;;;19.35;13.85;;;;;;;;;;5096799;28;20048;-96
2022/12/07 19:01:49;;;;;;;4.95;3.92;;;;;;;;;;5096458;28;20102;-96
2022/12/07 19:04:17;;;;;;;3.90;3.67;;;;;;;;;;5096650;28;20048;-95
2022/12/07 19:06:44;;;;;;;4.18;3.72;;;;;;;;;;5096559;28;20044;-96
2022/12/07 19:09:12;;;;;;;6.80;6.40;;;;;;;;;;5096464;28;20055;-95
2022/12/07 19:11:50;;;;;;;4.70;4.40;;;;;;;;;;5096320;28;20044;-95
2022/12/07 19:14:19;;;;;;;3.88;3.63;;;;;;;;;;5096196;28;20048;-96
2022/12/07 19:16:48;;;;;;;4.95;4.55;;;;;;;;;;5096463;28;20056;-95
2022/12/07 19:19:14;;;;;;;4.45;4.25;;;;;;;;;;5096380;28;20056;-95
2022/12/07 19:21:43;;;;;;;3.60;3.15;;;;;;;;;;5096343;28;20459;-96
2022/12/07 19:24:10;;;;;;;3.65;3.35;;;;;;;;;;5095647;28;20109;-95
2022/12/07 19:26:36;;;;;;;6.80;6.00;;;;;;;;;;5095923;28;20074;-93
2022/12/07 19:29:03;;;;;;;3.35;3.13;;;;;;;;;;5096148;28;20113;-94
2022/12/07 19:31:29;;;;;;;3.80;3.60;;;;;;;;;;5096064;28;20104;-96
2022/12/07 19:33:56;;;;;;;5.22;4.95;;;;;;;;;;5096089;28;20132;-96
2022/12/07 19:36:22;;;;;;;3.28;3.05;;;;;;;;;;5095747;28;20073;-96
2022/12/07 19:38:51;;;;;;;5.68;5.28;;;;;;;;;;5095715;28;20051;-95
2022/12/07 19:41:36;;;;;;;7.70;6.97;;;;;;;;;;5096068;28;20044;-96
2022/12/07 19:44:04;;;;;;;5.68;5.32;;;;;;;;;;5095568;28;20048;-96
2022/12/07 19:46:31;;;;;;;3.35;3.15;;;;;;;;;;5095979;28;20056;-96
2022/12/07 19:48:59;;;;;;;5.07;4.85;;;;;;;;;;5096925;28;20113;-96
2022/12/07 19:51:26;;;;;;;4.00;3.70;;;;;;;;;;5095542;28;20431;-95
2022/12/07 19:53:55;;;;;;;4.43;3.75;;;;;;;;;;5095668;28;20048;-95
2022/12/07 19:56:22;;;;;;;3.97;3.58;;;;;;;;;;5075408;28;20856;-96
2022/12/07 19:58:48;;;;;;;5.40;5.07;;;;;;;;;;5075262;28;20086;-96
2022/12/07 20:01:15;;;;;;;3.15;3.00;;;;;;;;;;5077808;28;20044;-96
2022/12/07 20:03:42;;;;;;;4.07;3.88;;;;;;;;;;5104374;28;20040;-95
2022/12/07 20:06:09;;;;;;;5.22;4.90;;;;;;;;;;5107478;28;20044;-96
2022/12/07 20:08:36;;;;;;;5.50;5.05;;;;;;;;;;5096923;28;20126;-94
2022/12/07 20:13:27;;;;;;;4.75;4.35;;;;;;;;;;5095094;28;20044;-96
2022/12/07 20:13:50;;;;;;;9.15;7.18;;;;;;;;;;5095356;28;20486;-96
2022/12/07 20:16:16;;;;;;;11.38;7.32;;;;;;;;;;5095169;28;20048;-96
2022/12/07 20:18:43;;;;;;;5.10;4.70;;;;;;;;;;5094731;28;20056;-96
2022/12/07 20:21:09;;;;;;;3.85;3.42;;;;;;;;;;5095629;28;20121;-96
2022/12/07 20:23:36;;;;;;;3.53;3.33;;;;;;;;;;5095351;28;20056;-96
2022/12/07 20:26:05;;;;;;;8.18;6.43;;;;;;;;;;5095033;28;20048;-96
2022/12/07 20:28:32;;;;;;;5.15;4.82;;;;;;;;;;5095111;28;20048;-96
2022/12/07 20:30:58;;;;;;;3.60;3.40;;;;;;;;;;5074343;28;20098;-96
2022/12/07 20:33:25;;;;;;;4.78;4.47;;;;;;;;;;5074347;28;20094;-96
2022/12/07 20:35:52;;;;;;;4.65;4.35;;;;;;;;;;5074335;28;20098;-96
2022/12/07 20:38:18;;;;;;;7.32;4.63;;;;;;;;;;5074814;28;20052;-96
2022/12/07 20:40:46;;;;;;;3.30;3.20;;;;;;;;;;5074615;28;20102;-96
2022/12/07 20:43:14;;;;;;;5.78;5.28;;;;;;;;;;5077806;28;20044;-96
2022/12/07 20:45:43;;;;;;;5.28;4.88;;;;;;;;;;5074681;28;20097;-96
2022/12/07 20:48:10;;;;;;;3.40;3.22;;;;;;;;;;5074672;28;20102;-96
2022/12/07 20:50:36;;;;;;;5.47;5.28;;;;;;;;;;5079743;28;20044;-96
2022/12/07 20:53:03;;;;;;;3.85;3.65;;;;;;;;;;5095465;28;20463;-96
2022/12/07 20:55:29;;;;;;;3.90;3.58;;;;;;;;;;5094567;28;20480;-96
2022/12/07 20:57:56;;;;;;;4.13;3.67;;;;;;;;;;5093972;28;20101;-96
2022/12/07 21:00:24;;;;;;;6.40;5.88;;;;;;;;;;5094072;28;20467;-96
2022/12/07 21:02:50;;;;;;;4.35;3.72;;;;;;;;;;5094681;28;20101;-96
2022/12/07 21:05:18;;;;;;;4.68;4.47;;;;;;;;;;5094242;28;20044;-96
2022/12/07 21:07:44;;;;;;;3.58;3.35;;;;;;;;;;5094446;28;20074;-96
2022/12/07 21:10:11;;;;;;;3.65;3.35;;;;;;;;;;5094732;28;20052;-96
2022/12/07 21:12:38;;;;;;;3.67;3.47;;;;;;;;;;5096277;28;20048;-96
2022/12/07 21:15:05;;;;;;;6.88;4.63;;;;;;;;;;5094545;28;20090;-96
2022/12/07 21:17:33;;;;;;;5.93;5.47;;;;;;;;;;5094398;28;20126;-96
2022/12/07 21:19:59;;;;;;;5.90;5.50;;;;;;;;;;5094678;28;20461;-96
2022/12/07 21:22:26;;;;;;;3.53;3.22;;;;;;;;;;5095026;28;20391;-96
2022/12/07 21:24:52;;;;;;;4.93;4.28;;;;;;;;;;5096983;28;20105;-96
2022/12/07 21:27:19;;;;;;;2.75;2.65;;;;;;;;;;5095360;28;20094;-96
2022/12/07 21:29:45;;;;;;;4.38;4.15;;;;;;;;;;5093994;28;20044;-96
2022/12/07 21:32:12;;;;;;;2.95;2.75;;;;;;;;;;5094127;28;20462;-96
2022/12/07 21:34:40;;;;;;;3.83;3.63;;;;;;;;;;5093857;28;20047;-96
2022/12/07 21:37:06;;;;;;;3.55;3.35;;;;;;;;;;5094290;28;20044;-96
2022/12/07 21:39:33;;;;;;;3.55;3.35;;;;;;;;;;5093849;28;20051;-96
2022/12/07 21:41:59;;;;;;;5.95;4.50;;;;;;;;;;5093975;28;20048;-96
2022/12/07 21:44:26;;;;;;;5.45;5.13;;;;;;;;;;5093804;28;20082;-96
2022/12/07 21:46:52;;;;;;;7.50;6.88;;;;;;;;;;5093457;28;20488;-96
2022/12/07 21:49:19;;;;;;;4.95;4.57;;;;;;;;;;5093320;28;20048;-96
2022/12/07 21:51:47;;;;;;;5.03;4.63;;;;;;;;;;5093661;28;20055;-96
2022/12/07 21:54:13;;;;;;;3.45;3.22;;;;;;;;;;5093949;28;20040;-96
2022/12/07 21:56:41;;;;;;;5.75;5.25;;;;;;;;;;5093600;28;20056;-96
2022/12/07 21:59:12;;;;;;;3.90;3.60;;;;;;;;;;5094184;28;20418;-96
2022/12/07 22:01:39;;;;;;;5.45;5.15;;;;;;;;;;5093786;28;20477;-96
2022/12/07 22:04:06;;;;;;;4.57;4.18;;;;;;;;;;5105566;28;20075;-96
2022/12/07 22:06:33;;;;;;;3.50;3.05;;;;;;;;;;5103633;28;20043;-96
2022/12/07 22:09:01;;;;;;;6.70;6.22;;;;;;;;;;5099092;28;20077;-96
2022/12/07 22:11:27;;;;;;;3.95;3.75;;;;;;;;;;5082456;28;20045;-96
2022/12/07 22:16:38;;;;;;;2.13;1.98;;;;;;;;;;5077342;28;20459;-96
2022/12/07 22:19:04;;;;;;;1.95;1.85;;;;;;;;;;5077083;28;20413;-96
2022/12/07 22:21:31;;;;;;;2.80;2.63;;;;;;;;;;5077349;28;20049;-96
2022/12/07 22:23:58;;;;;;;3.58;3.22;;;;;;;;;;5077149;28;20052;-96
2022/12/07 22:26:26;;;;;;;1.88;1.77;;;;;;;;;;5077660;28;20056;-96
2022/12/07 22:28:52;;;;;;;3.53;3.30;;;;;;;;;;5077274;28;20044;-96
2022/12/07 22:31:20;;;;;;;3.40;3.22;;;;;;;;;;5077077;28;20055;-96